Austin, TX (78715)

7:09 PM CDT on September 26, 2016 (GMT -0500)
Manchacha @ Gaines Mill | | Change Station

Elev 776 ft 30.20 °N, 97.81 °W | Updated 44 seconds ago

Overcast
Overcast
68.1 °F
Feels Like 68.1 °F
N
0.0
Wind Variable Wind from North
Gusts 0.0 mph

Today
High -- | Low -- °F
--% Chance of Precip.
Yesterday
High -- | Low -- °F
Precip. -- in
Pressure 30.07 in
Visibility 10.0 miles
Clouds Mostly Cloudy 1900 ft
Overcast 2400 ft
Dew Point 64 °F
Humidity 86%
Rainfall 0.63 in
Snow Depth Not available.
7:22 AM 7:22 PM
Waning Crescent, 15% visible
METAR KAUS 262353Z 36012KT 10SM BKN019 OVC024 21/17 A3008 RMK AO2 SLP181 T02060172 10228 20206 53006
Pressure 30.07 in
Visibility 10.0 miles
Clouds Mostly Cloudy 1900 ft
Overcast 2400 ft
Dew Point 64 °F
Humidity 86%
Rainfall 0.63 in
Snow Depth Not available.
7:22 AM 7:22 PM
Waning Crescent, 15% visible
METAR KAUS 262353Z 36012KT 10SM BKN019 OVC024 21/17 A3008 RMK AO2 SLP181 T02060172 10228 20206 53006

10-Day Weather Forecast

Almanac

Astronomy

Sep. 26, 2016 Rise Set
Actual Time
Civil Twilight
Nautical Twilight
Astronomical Twilight
Moon
Length of Visible Light
Length of Day
Tomorrow will be .
, % of the Moon is Illuminated

Today's Extremes

State Highs State Lows

Community

WunderPhotos

Upload Photos

1,941,990 photos uploaded!

WunderBlog® & News

Nearby

Air Quality

  Air Quality AQ Index Pollutant
Not available.

Snow Depth

Station Depth Elevation

Earthquake Activity

City Distance Mag. Time & Date
Minimum magnitude displayed is 2.5.

Coastal Water Temperatures

Place Temperature

Stations

Nearby Weather Stations

Station Location Temp. Windchill Dew Point Humidity Wind Precip. Elev Updated Type
                   

Watches & Warnings

There are currently no watches in effect.